Time;durP1;ratioP1;P1;durP2;ratioP2;P2;SDS_P1;SDS_P2;PMS_P1;PMS_P2;Temp;Humidity;BMP_temperature;BMP_pressure;BME280_temperature;BME280_humidity;BME280_pressure;Samples;Min_cycle;Max_cycle;Signal;HPM_P1;HPM_P2
2021/06/09 00:04:35;;;;;;;;;33.33;27.67;;;;;;;;8821147;40;10088;-63
2021/06/09 00:10:36;;;;;;;;;27.00;27.00;;;;;;;;8821323;40;10122;-63
2021/06/09 00:16:39;;;;;;;;;33.67;30.00;;;;;;;;8824281;40;11160;-63
2021/06/09 00:22:41;;;;;;;;;29.33;28.00;;;;;;;;8825755;40;10234;-62
2021/06/09 00:28:45;;;;;;;;;29.00;27.00;;;;;;;;8824668;40;10075;-62
2021/06/09 00:34:47;;;;;;;;;37.67;31.33;;;;;;;;8824751;40;10137;-63
2021/06/09 00:40:49;;;;;;;;;32.00;27.67;;;;;;;;8815905;40;10124;-63
2021/06/09 00:46:51;;;;;;;;;34.00;32.33;;;;;;;;8824192;40;10146;-63
2021/06/09 00:52:53;;;;;;;;;27.00;24.33;;;;;;;;8822695;40;10100;-62
2021/06/09 00:58:55;;;;;;;;;29.33;29.00;;;;;;;;8824396;40;10073;-62
2021/06/09 01:04:57;;;;;;;;;29.00;26.33;;;;;;;;8825393;40;10143;-62
2021/06/09 01:10:59;;;;;;;;;24.00;23.33;;;;;;;;8814990;40;10048;-62
2021/06/09 01:17:01;;;;;;;;;35.67;30.00;;;;;;;;8824989;40;10152;-63
2021/06/09 01:23:04;;;;;;;;;32.00;30.00;;;;;;;;8814749;40;10136;-63
2021/06/09 01:29:09;;;;;;;;;35.67;32.33;;;;;;;;8823721;40;10097;-63
2021/06/09 01:35:12;;;;;;;;;35.00;32.67;;;;;;;;8823535;40;10098;-61
2021/06/09 01:41:14;;;;;;;;;23.67;21.33;;;;;;;;8824395;40;10056;-62
2021/06/09 01:47:16;;;;;;;;;24.00;24.00;;;;;;;;8825562;40;10070;-61
2021/06/09 01:53:19;;;;;;;;;25.67;25.67;;;;;;;;8823403;40;10108;-62
2021/06/09 01:59:21;;;;;;;;;24.33;24.33;;;;;;;;8823434;40;10044;-62
2021/06/09 02:05:23;;;;;;;;;18.33;17.00;;;;;;;;8814145;40;10051;-62
2021/06/09 02:11:25;;;;;;;;;26.67;24.33;;;;;;;;8823920;40;10459;-62
2021/06/09 02:17:27;;;;;;;;;24.00;24.00;;;;;;;;8823711;40;10120;-62
2021/06/09 02:23:32;;;;;;;;;29.00;28.00;;;;;;;;8822295;40;10103;-62
2021/06/09 02:29:34;;;;;;;;;34.00;33.00;;;;;;;;8824941;40;10066;-62
2021/06/09 02:35:38;;;;;;;;;35.33;33.00;;;;;;;;8814063;40;10108;-61
2021/06/09 02:41:40;;;;;;;;;36.67;33.00;;;;;;;;8823185;40;10101;-62
2021/06/09 02:47:54;;;;;;;;;32.67;32.33;;;;;;;;8823731;40;10678;-61
2021/06/09 02:54:21;;;;;;;;;38.67;34.67;;;;;;;;8822987;40;10108;-62
2021/06/09 03:00:29;;;;;;;;;31.00;28.33;;;;;;;;8812524;40;10132;-62
2021/06/09 03:06:45;;;;;;;;;31.67;29.33;;;;;;;;8823505;40;10292;-61
2021/06/09 03:13:03;;;;;;;;;29.33;26.00;;;;;;;;8823277;40;10202;-62
2021/06/09 03:19:10;;;;;;;;;23.00;21.00;;;;;;;;8822600;40;10661;-63
2021/06/09 03:25:24;;;;;;;;;31.33;29.33;;;;;;;;8813484;40;10104;-63
2021/06/09 03:31:32;;;;;;;;;19.00;18.33;;;;;;;;8822897;40;10068;-62
2021/06/09 03:37:42;;;;;;;;;29.33;24.33;;;;;;;;8821945;40;10116;-62
2021/06/09 03:43:49;;;;;;;;;26.00;24.67;;;;;;;;8822663;40;10121;-63
2021/06/09 03:49:52;;;;;;;;;25.33;25.33;;;;;;;;8822936;40;10116;-63
2021/06/09 03:55:59;;;;;;;;;34.33;31.33;;;;;;;;8825916;40;10131;-63
2021/06/09 04:02:07;;;;;;;;;36.00;33.33;;;;;;;;9883878;23;10144;-59
2021/06/09 04:08:12;;;;;;;;;33.00;29.67;;;;;;;;8848807;40;10772;-58
2021/06/09 04:14:20;;;;;;;;;35.00;33.00;;;;;;;;8855922;40;9889;-59
2021/06/09 04:20:27;;;;;;;;;35.00;30.33;;;;;;;;8854142;40;10027;-59
2021/06/09 04:26:29;;;;;;;;;30.33;29.67;;;;;;;;8853807;40;9945;-59
2021/06/09 04:32:48;;;;;;;;;36.67;35.33;;;;;;;;8853230;40;9865;-60
2021/06/09 04:38:50;;;;;;;;;33.67;31.00;;;;;;;;8853921;40;9948;-58
2021/06/09 04:44:52;;;;;;;;;35.00;34.00;;;;;;;;8852891;40;9913;-58
2021/06/09 04:50:54;;;;;;;;;41.67;35.00;;;;;;;;8853075;40;9951;-58
2021/06/09 04:56:57;;;;;;;;;48.33;42.00;;;;;;;;8852583;40;9870;-58
2021/06/09 05:02:59;;;;;;;;;50.00;42.00;;;;;;;;8851694;40;9788;-58
2021/06/09 05:09:05;;;;;;;;;43.33;38.33;;;;;;;;8852524;40;9934;-58
2021/06/09 05:15:09;;;;;;;;;37.67;35.67;;;;;;;;8839454;40;10328;-58
2021/06/09 05:21:13;;;;;;;;;30.33;29.00;;;;;;;;8828570;40;10096;-57
2021/06/09 05:27:19;;;;;;;;;31.33;28.67;;;;;;;;8817623;40;10242;-58
2021/06/09 05:33:22;;;;;;;;;35.33;32.00;;;;;;;;8828625;40;10009;-59
2021/06/09 05:39:24;;;;;;;;;27.33;26.00;;;;;;;;8827630;40;10054;-59
2021/06/09 05:45:28;;;;;;;;;34.33;30.00;;;;;;;;8827402;40;11276;-58
2021/06/09 05:51:30;;;;;;;;;28.00;25.00;;;;;;;;8831238;40;10262;-57
2021/06/09 05:57:32;;;;;;;;;30.33;30.33;;;;;;;;8823224;40;10387;-59
2021/06/09 06:03:38;;;;;;;;;23.25;20.75;;;;;;;;8822829;40;11105;-58
2021/06/09 06:09:40;;;;;;;;;27.50;23.50;;;;;;;;8822441;40;10921;-61
2021/06/09 06:15:42;;;;;;;;;21.00;20.50;;;;;;;;8824108;40;11377;-58
2021/06/09 06:21:44;;;;;;;;;26.75;24.25;;;;;;;;8824012;40;11335;-58
2021/06/09 06:27:47;;;;;;;;;17.75;17.75;;;;;;;;8816643;40;10590;-59
2021/06/09 06:33:56;;;;;;;;;18.50;16.75;;;;;;;;8821876;40;11265;-60
2021/06/09 06:39:58;;;;;;;;;14.00;14.00;;;;;;;;8825317;40;10540;-58
2021/06/09 06:46:00;;;;;;;;;21.00;17.25;;;;;;;;8818662;40;10589;-60
2021/06/09 06:52:03;;;;;;;;;16.75;15.00;;;;;;;;8819980;40;10615;-61
2021/06/09 06:58:07;;;;;;;;;14.50;14.50;;;;;;;;8819370;40;10542;-59
2021/06/09 07:04:10;;;;;;;;;20.00;17.00;;;;;;;;8820346;40;10488;-59
2021/06/09 07:10:17;;;;;;;;;14.00;14.00;;;;;;;;8819521;40;10715;-60
2021/06/09 07:16:23;;;;;;;;;19.75;14.25;;;;;;;;8820241;40;11181;-59
2021/06/09 07:22:25;;;;;;;;;16.75;16.00;;;;;;;;8822416;40;10691;-59
2021/06/09 07:28:29;;;;;;;;;15.00;15.00;;;;;;;;8827191;40;10597;-61
2021/06/09 07:34:31;;;;;;;;;13.00;13.00;;;;;;;;8817149;40;10489;-59
2021/06/09 07:40:37;;;;;;;;;13.50;13.50;;;;;;;;8825665;40;10587;-60
2021/06/09 07:46:42;;;;;;;;;13.75;13.00;;;;;;;;8827530;40;10581;-58
2021/06/09 07:52:46;;;;;;;;;14.75;14.75;;;;;;;;8827628;40;10545;-59
2021/06/09 07:58:49;;;;;;;;;12.25;11.75;;;;;;;;8824879;40;10816;-59
2021/06/09 08:04:52;;;;;;;;;14.00;14.00;;;;;;;;8826708;40;10503;-59
2021/06/09 08:10:55;;;;;;;;;14.00;14.00;;;;;;;;8824642;40;11159;-58
2021/06/09 08:16:57;;;;;;;;;13.00;12.00;;;;;;;;8822378;40;10674;-60
2021/06/09 08:23:00;;;;;;;;;13.50;13.50;;;;;;;;8825246;40;11451;-61
2021/06/09 08:29:02;;;;;;;;;10.25;10.25;;;;;;;;8825301;40;10704;-60
2021/06/09 08:35:06;;;;;;;;;14.25;14.25;;;;;;;;8824769;40;10618;-59
2021/06/09 08:41:10;;;;;;;;;29.25;25.25;;;;;;;;8828234;40;10648;-62
2021/06/09 08:47:12;;;;;;;;;13.00;13.00;;;;;;;;8820910;40;11208;-59
2021/06/09 08:53:22;;;;;;;;;13.25;13.25;;;;;;;;8820337;40;10795;-60
2021/06/09 08:59:24;;;;;;;;;16.50;14.75;;;;;;;;8819267;40;10546;-59
2021/06/09 09:05:27;;;;;;;;;17.00;14.75;;;;;;;;8820699;40;11062;-61
2021/06/09 09:11:30;;;;;;;;;16.25;14.75;;;;;;;;8820909;40;10551;-61
2021/06/09 09:17:32;;;;;;;;;16.75;16.00;;;;;;;;8820266;40;10542;-60
2021/06/09 09:23:35;;;;;;;;;15.25;14.25;;;;;;;;8818712;40;11163;-61
2021/06/09 09:29:37;;;;;;;;;14.25;13.00;;;;;;;;8819661;40;11090;-61
2021/06/09 09:35:43;;;;;;;;;11.50;11.25;;;;;;;;8811154;40;10422;-61
2021/06/09 09:41:45;;;;;;;;;16.75;16.50;;;;;;;;8822347;40;10580;-60
2021/06/09 09:48:05;;;;;;;;;18.75;17.25;;;;;;;;8818943;40;10580;-59
2021/06/09 09:54:08;;;;;;;;;22.50;21.00;;;;;;;;8820225;40;11122;-60
2021/06/09 10:00:11;;;;;;;;;15.00;15.00;;;;;;;;8819757;40;10977;-57
2021/06/09 10:06:20;;;;;;;;;17.00;15.25;;;;;;;;8819661;40;10702;-61
2021/06/09 10:12:22;;;;;;;;;11.00;11.00;;;;;;;;8820104;40;10562;-60
2021/06/09 10:18:25;;;;;;;;;15.50;15.50;;;;;;;;8819386;40;10566;-60
2021/06/09 10:24:27;;;;;;;;;16.75;15.00;;;;;;;;8827503;40;10538;-59
2021/06/09 10:30:29;;;;;;;;;16.00;14.75;;;;;;;;8819622;40;10571;-62
2021/06/09 10:36:40;;;;;;;;;15.00;14.75;;;;;;;;8807009;40;11108;-62
2021/06/09 10:42:45;;;;;;;;;15.75;15.75;;;;;;;;8819500;40;10525;-61
2021/06/09 10:48:49;;;;;;;;;12.75;11.75;;;;;;;;8819057;40;11378;-61
2021/06/09 10:54:52;;;;;;;;;19.75;19.75;;;;;;;;8818194;40;10657;-60
2021/06/09 11:00:55;;;;;;;;;18.25;15.50;;;;;;;;8820405;40;10585;-61
2021/06/09 11:06:57;;;;;;;;;10.25;10.25;;;;;;;;8819607;40;10622;-60
2021/06/09 11:13:00;;;;;;;;;18.50;16.00;;;;;;;;8825412;40;10635;-60
2021/06/09 11:19:02;;;;;;;;;15.00;15.00;;;;;;;;8819159;40;11198;-62
2021/06/09 11:25:21;;;;;;;;;19.00;17.50;;;;;;;;8806277;40;10540;-60
2021/06/09 11:31:26;;;;;;;;;17.25;17.00;;;;;;;;8817967;40;10601;-61
2021/06/09 11:37:29;;;;;;;;;18.75;16.50;;;;;;;;8818200;40;10543;-60
2021/06/09 11:43:48;;;;;;;;;16.00;15.25;;;;;;;;8818781;40;10571;-62
2021/06/09 11:49:53;;;;;;;;;14.75;12.00;;;;;;;;8819530;40;10553;-61
2021/06/09 11:56:18;;;;;;;;;16.25;14.50;;;;;;;;8810052;40;10676;-63
2021/06/09 12:02:25;;;;;;;;;14.00;14.00;;;;;;;;8818588;40;10566;-63
2021/06/09 12:08:28;;;;;;;;;13.75;12.50;;;;;;;;8818498;40;10883;-58
2021/06/09 12:14:34;;;;;;;;;18.50;16.50;;;;;;;;8820889;40;10505;-61
2021/06/09 12:20:36;;;;;;;;;14.50;14.00;;;;;;;;8826423;40;10500;-60
2021/06/09 12:26:38;;;;;;;;;16.25;14.25;;;;;;;;8825703;40;10541;-59
2021/06/09 12:32:41;;;;;;;;;15.75;14.75;;;;;;;;8824057;40;10535;-60
2021/06/09 12:38:49;;;;;;;;;13.25;12.50;;;;;;;;8824852;40;10571;-60
2021/06/09 12:44:51;;;;;;;;;14.50;14.00;;;;;;;;8824140;40;10586;-62
2021/06/09 12:50:56;;;;;;;;;17.00;17.00;;;;;;;;8826238;40;10598;-59
2021/06/09 12:56:58;;;;;;;;;17.25;13.75;;;;;;;;8825390;40;10776;-60
2021/06/09 13:03:20;;;;;;;;;14.75;14.75;;;;;;;;8825640;40;10599;-59
2021/06/09 13:09:22;;;;;;;;;12.00;11.50;;;;;;;;8815705;40;10545;-60
2021/06/09 13:15:24;;;;;;;;;19.50;17.75;;;;;;;;8825242;40;10618;-59
2021/06/09 13:21:30;;;;;;;;;17.00;17.00;;;;;;;;8825690;40;11141;-59
2021/06/09 13:27:32;;;;;;;;;24.25;22.75;;;;;;;;8824144;40;10647;-60
2021/06/09 13:33:34;;;;;;;;;16.25;16.25;;;;;;;;8824610;40;10492;-60
2021/06/09 13:39:43;;;;;;;;;19.25;17.75;;;;;;;;8824379;40;10787;-61
2021/06/09 13:45:50;;;;;;;;;15.75;14.50;;;;;;;;8817357;40;10530;-60
2021/06/09 13:51:52;;;;;;;;;23.25;20.25;;;;;;;;8824055;40;10582;-62
2021/06/09 13:57:55;;;;;;;;;15.25;15.25;;;;;;;;8822066;40;10602;-59
2021/06/09 14:04:08;;;;;;;;;22.75;20.25;;;;;;;;8822412;40;10711;-60
2021/06/09 14:10:12;;;;;;;;;18.75;18.75;;;;;;;;8825911;40;10616;-61
2021/06/09 14:16:14;;;;;;;;;15.00;14.25;;;;;;;;8825565;40;10722;-60
2021/06/09 14:22:29;;;;;;;;;13.75;12.00;;;;;;;;8824136;40;10562;-61
2021/06/09 14:28:47;;;;;;;;;17.25;14.00;;;;;;;;8823682;40;10555;-59
2021/06/09 14:34:49;;;;;;;;;12.25;12.25;;;;;;;;8827107;40;10528;-60
2021/06/09 14:40:53;;;;;;;;;13.25;10.00;;;;;;;;8826766;40;10554;-61
2021/06/09 14:47:07;;;;;;;;;9.50;9.50;;;;;;;;8826506;40;10365;-61
2021/06/09 14:53:09;;;;;;;;;13.25;12.50;;;;;;;;8826949;40;11310;-61
2021/06/09 14:59:22;;;;;;;;;10.00;10.00;;;;;;;;8826293;40;11153;-61
2021/06/09 15:05:24;;;;;;;;;8.50;8.50;;;;;;;;8828233;40;10462;-63
2021/06/09 15:11:26;;;;;;;;;5.00;5.00;;;;;;;;8825882;40;10407;-62
2021/06/09 15:17:28;;;;;;;;;8.75;8.75;;;;;;;;8827615;40;10938;-61
2021/06/09 15:23:30;;;;;;;;;11.00;11.00;;;;;;;;8826951;40;11420;-62
2021/06/09 15:29:32;;;;;;;;;13.25;10.75;;;;;;;;8825741;40;10529;-62
2021/06/09 15:35:34;;;;;;;;;9.00;9.00;;;;;;;;8826667;40;10674;-62
2021/06/09 15:41:41;;;;;;;;;9.50;8.75;;;;;;;;8816576;40;10552;-62
2021/06/09 15:47:43;;;;;;;;;8.75;8.75;;;;;;;;8829353;40;10654;-62
2021/06/09 15:53:45;;;;;;;;;9.75;9.50;;;;;;;;8804937;40;10557;-61
2021/06/09 15:59:47;;;;;;;;;11.50;10.25;;;;;;;;8817245;40;10566;-63
2021/06/09 16:05:49;;;;;;;;;9.00;9.00;;;;;;;;8812425;40;10511;-60
2021/06/09 16:11:51;;;;;;;;;10.75;10.00;;;;;;;;8829860;40;10622;-61
2021/06/09 16:17:53;;;;;;;;;11.00;9.25;;;;;;;;8830012;40;10614;-61
2021/06/09 16:23:55;;;;;;;;;9.50;9.50;;;;;;;;8828816;40;10660;-63
2021/06/09 16:29:57;;;;;;;;;10.25;8.75;;;;;;;;8828136;40;10763;-60
2021/06/09 16:35:59;;;;;;;;;9.25;9.25;;;;;;;;8831030;40;10717;-63
2021/06/09 16:42:02;;;;;;;;;11.00;11.00;;;;;;;;8828895;40;10637;-64
2021/06/09 16:48:05;;;;;;;;;9.25;9.25;;;;;;;;8829984;40;10656;-60
2021/06/09 16:54:13;;;;;;;;;13.50;12.75;;;;;;;;8828320;40;11264;-61
2021/06/09 17:00:16;;;;;;;;;12.00;9.75;;;;;;;;8829576;40;10844;-61
2021/06/09 17:06:20;;;;;;;;;12.75;11.50;;;;;;;;8829620;40;10990;-60
2021/06/09 17:12:22;;;;;;;;;11.25;11.25;;;;;;;;8829038;40;10884;-61
2021/06/09 17:18:24;;;;;;;;;8.33;8.33;;;;;;;;8828244;40;11258;-60
2021/06/09 17:24:26;;;;;;;;;12.33;12.33;;;;;;;;8829418;40;10010;-60
2021/06/09 17:30:29;;;;;;;;;7.00;7.00;;;;;;;;8827524;40;10913;-61
2021/06/09 17:36:30;;;;;;;;;12.67;12.67;;;;;;;;8828370;40;10653;-61
2021/06/09 17:42:32;;;;;;;;;16.00;15.00;;;;;;;;8826216;40;10427;-60
2021/06/09 17:48:34;;;;;;;;;17.00;17.00;;;;;;;;8828086;40;10240;-60
2021/06/09 17:54:36;;;;;;;;;13.00;13.00;;;;;;;;8828592;40;10462;-62
2021/06/09 18:00:49;;;;;;;;;12.33;12.33;;;;;;;;8827057;40;10039;-62
2021/06/09 18:06:52;;;;;;;;;11.33;11.33;;;;;;;;8828062;40;10737;-59
2021/06/09 18:12:54;;;;;;;;;12.67;12.67;;;;;;;;8826668;40;10194;-60
2021/06/09 18:18:56;;;;;;;;;10.67;10.67;;;;;;;;8827951;40;9906;-61
2021/06/09 18:24:58;;;;;;;;;14.67;13.33;;;;;;;;8827651;40;10030;-59
2021/06/09 18:31:00;;;;;;;;;14.33;14.00;;;;;;;;8826862;40;10504;-62
2021/06/09 18:37:02;;;;;;;;;16.67;15.67;;;;;;;;8827396;40;10108;-61
2021/06/09 18:43:05;;;;;;;;;14.33;14.00;;;;;;;;8826832;40;10192;-59
2021/06/09 18:49:07;;;;;;;;;14.00;11.00;;;;;;;;8827736;40;10259;-59
2021/06/09 18:55:12;;;;;;;;;9.67;7.33;;;;;;;;8827813;40;10283;-61
2021/06/09 19:01:14;;;;;;;;;13.00;12.00;;;;;;;;8826150;40;10033;-60
2021/06/09 19:07:19;;;;;;;;;16.67;15.67;;;;;;;;8829818;40;11142;-60
2021/06/09 19:13:21;;;;;;;;;12.00;12.00;;;;;;;;8826743;40;10646;-64
2021/06/09 19:19:23;;;;;;;;;13.33;11.67;;;;;;;;8827426;40;10950;-60
2021/06/09 19:25:26;;;;;;;;;13.00;13.00;;;;;;;;8825859;40;10557;-60
2021/06/09 19:31:28;;;;;;;;;18.33;16.00;;;;;;;;8827036;40;10680;-59
2021/06/09 19:37:31;;;;;;;;;13.33;13.33;;;;;;;;8826095;40;11185;-61
2021/06/09 19:43:34;;;;;;;;;13.33;13.33;;;;;;;;8825492;40;10469;-61
2021/06/09 19:49:37;;;;;;;;;14.00;14.00;;;;;;;;8826102;40;10062;-60
2021/06/09 19:55:41;;;;;;;;;15.67;15.67;;;;;;;;8833174;40;10402;-61
2021/06/09 20:01:43;;;;;;;;;18.33;18.33;;;;;;;;8825090;40;10112;-60
2021/06/09 20:07:45;;;;;;;;;16.00;16.00;;;;;;;;8826567;40;10642;-59
2021/06/09 20:13:48;;;;;;;;;13.00;13.00;;;;;;;;8824986;40;10467;-60
2021/06/09 20:19:50;;;;;;;;;15.00;15.00;;;;;;;;8825599;40;10248;-60
2021/06/09 20:31:55;;;;;;;;;16.00;14.00;;;;;;;;8827911;40;10620;-59
2021/06/09 20:37:57;;;;;;;;;17.00;15.00;;;;;;;;8830895;40;10089;-61
2021/06/09 20:43:59;;;;;;;;;15.00;12.00;;;;;;;;8828417;40;10073;-59
2021/06/09 20:50:02;;;;;;;;;14.00;14.00;;;;;;;;8830194;40;9959;-60
2021/06/09 20:56:04;;;;;;;;;17.00;16.67;;;;;;;;8827923;40;10048;-60
2021/06/09 21:02:06;;;;;;;;;15.33;14.00;;;;;;;;8829618;40;10178;-59
2021/06/09 21:08:09;;;;;;;;;17.00;15.33;;;;;;;;8829321;40;10043;-60
2021/06/09 21:14:13;;;;;;;;;21.67;19.33;;;;;;;;8829103;40;10585;-60
2021/06/09 21:20:17;;;;;;;;;18.33;16.33;;;;;;;;8828482;40;10022;-59
2021/06/09 21:26:19;;;;;;;;;13.00;13.00;;;;;;;;8827639;40;10225;-59
2021/06/09 21:32:21;;;;;;;;;19.00;19.00;;;;;;;;8829021;40;10115;-59
2021/06/09 21:38:23;;;;;;;;;15.33;12.33;;;;;;;;8829443;40;10029;-60
2021/06/09 21:44:25;;;;;;;;;20.33;18.67;;;;;;;;8828709;40;10112;-59
2021/06/09 21:50:27;;;;;;;;;11.00;11.00;;;;;;;;8828300;40;10289;-60
2021/06/09 21:56:30;;;;;;;;;19.33;17.00;;;;;;;;8827378;40;10013;-59
2021/06/09 22:02:33;;;;;;;;;13.67;13.67;;;;;;;;8827403;40;10023;-59
2021/06/09 22:08:35;;;;;;;;;19.33;19.33;;;;;;;;8827027;40;10102;-59
2021/06/09 22:14:39;;;;;;;;;15.33;14.67;;;;;;;;8826912;40;10092;-59
2021/06/09 22:20:42;;;;;;;;;15.00;13.67;;;;;;;;8827325;40;10031;-57
2021/06/09 22:26:44;;;;;;;;;16.33;14.67;;;;;;;;8811172;40;10031;-60
2021/06/09 22:32:47;;;;;;;;;16.00;16.00;;;;;;;;8828220;40;10057;-59
2021/06/09 22:38:50;;;;;;;;;19.00;14.67;;;;;;;;8828527;40;10073;-58
2021/06/09 22:44:52;;;;;;;;;12.00;12.00;;;;;;;;8826509;40;10057;-60
2021/06/09 22:50:56;;;;;;;;;20.00;16.67;;;;;;;;8828595;40;9970;-59
2021/06/09 22:56:58;;;;;;;;;16.00;15.00;;;;;;;;8826055;40;10471;-59
2021/06/09 23:03:00;;;;;;;;;18.00;16.67;;;;;;;;8826460;40;10126;-59
2021/06/09 23:09:03;;;;;;;;;15.33;15.00;;;;;;;;8826721;40;11126;-59
2021/06/09 23:15:06;;;;;;;;;14.67;14.67;;;;;;;;8825683;40;10276;-60
2021/06/09 23:21:08;;;;;;;;;14.33;14.33;;;;;;;;8826726;40;10259;-58
2021/06/09 23:27:10;;;;;;;;;17.67;17.33;;;;;;;;8825439;40;10106;-58
2021/06/09 23:33:12;;;;;;;;;15.00;14.00;;;;;;;;8825902;40;10042;-59
2021/06/09 23:39:14;;;;;;;;;16.67;16.67;;;;;;;;8826188;40;10066;-60
2021/06/09 23:45:17;;;;;;;;;16.00;13.67;;;;;;;;8825255;40;10314;-60
2021/06/09 23:57:23;;;;;;;;;17.67;17.67;;;;;;;;8825354;40;10038;-58
